createdAt,value
2019-01-10T00:00:07.733Z,0
2019-01-10T00:01:17.162Z,0
2019-01-10T00:02:27.097Z,0
2019-01-10T00:03:37.025Z,0
2019-01-10T00:04:46.732Z,0
2019-01-10T00:05:56.673Z,0
2019-01-10T00:07:06.601Z,0
2019-01-10T00:08:16.045Z,0
2019-01-10T00:09:25.715Z,0
2019-01-10T00:10:35.856Z,0
2019-01-10T00:11:45.784Z,0
2019-01-10T00:12:55.477Z,0
2019-01-10T00:14:05.165Z,0
2019-01-10T00:15:15.112Z,0
2019-01-10T00:16:24.813Z,0
2019-01-10T00:17:34.302Z,0
2019-01-10T00:18:44.240Z,0
2019-01-10T00:19:54.177Z,0
2019-01-10T00:21:04.123Z,0
2019-01-10T00:22:14.070Z,0
2019-01-10T00:23:23.768Z,0
2019-01-10T00:24:32.948Z,0
2019-01-10T00:25:42.897Z,0
2019-01-10T00:26:52.603Z,0
2019-01-10T00:28:02.308Z,0
2019-01-10T00:29:12.236Z,0
2019-01-10T00:30:21.924Z,0
2019-01-10T00:31:31.862Z,0
2019-01-10T00:32:41.804Z,0
2019-01-10T00:33:51.763Z,0
2019-01-10T00:35:00.957Z,0
2019-01-10T00:36:10.876Z,0
2019-01-10T00:37:20.875Z,0
2019-01-10T00:38:30.840Z,0
2019-01-10T00:39:42.005Z,0
2019-01-10T00:40:51.968Z,0
2019-01-10T00:42:01.914Z,0
2019-01-10T00:43:11.858Z,0
2019-01-10T00:44:21.790Z,0
2019-01-10T00:45:31.731Z,0
2019-01-10T00:46:41.754Z,0
2019-01-10T00:47:51.693Z,0
2019-01-10T00:49:01.386Z,0
2019-01-10T00:50:11.435Z,0
2019-01-10T00:51:21.125Z,0
2019-01-10T00:52:31.057Z,0
2019-01-10T00:53:40.996Z,0
2019-01-10T00:54:50.930Z,0
2019-01-10T00:56:00.873Z,0
2019-01-10T00:57:10.802Z,0
2019-01-10T00:58:20.753Z,0
2019-01-10T00:59:30.436Z,0
2019-01-10T01:00:40.391Z,0
2019-01-10T01:01:50.426Z,0
2019-01-10T01:03:00.380Z,0
2019-01-10T01:04:10.306Z,0
2019-01-10T01:05:20.254Z,0
2019-01-10T01:06:30.205Z,0
2019-01-10T01:07:40.144Z,0
2019-01-10T01:08:49.929Z,0
2019-01-10T01:09:59.866Z,0
2019-01-10T01:11:09.821Z,0
2019-01-10T01:12:19.756Z,0
2019-01-10T01:13:29.698Z,0
2019-01-10T01:14:39.399Z,0
2019-01-10T01:15:49.418Z,0
2019-01-10T01:16:59.115Z,0
2019-01-10T01:18:08.561Z,0
2019-01-10T01:19:18.235Z,0
2019-01-10T01:20:28.260Z,0
2019-01-10T01:21:38.053Z,0
2019-01-10T01:22:47.742Z,0
2019-01-10T01:23:57.688Z,0
2019-01-10T01:25:07.384Z,0
2019-01-10T01:26:17.319Z,0
2019-01-10T01:27:26.779Z,0
2019-01-10T01:28:36.721Z,0
2019-01-10T01:29:46.652Z,0
2019-01-10T01:30:56.587Z,0
2019-01-10T01:32:06.291Z,0
2019-01-10T01:33:16.217Z,0
2019-01-10T01:34:26.144Z,0
2019-01-10T01:35:35.839Z,0
2019-01-10T01:36:45.856Z,0
2019-01-10T01:37:55.793Z,0
2019-01-10T01:39:05.768Z,0
2019-01-10T01:40:15.195Z,0
2019-01-10T01:41:25.149Z,0
2019-01-10T01:42:35.087Z,0
2019-01-10T01:43:45.022Z,0
2019-01-10T01:44:54.710Z,0
2019-01-10T01:46:04.475Z,0
2019-01-10T01:47:15.229Z,0
2019-01-10T01:48:25.239Z,0
2019-01-10T01:49:34.678Z,0
2019-01-10T01:50:44.622Z,0
2019-01-10T01:51:54.554Z,0
2019-01-10T01:53:04.492Z,0
2019-01-10T01:54:14.421Z,0
2019-01-10T01:55:24.378Z,0
2019-01-10T01:56:34.312Z,0
2019-01-10T01:57:43.999Z,0
2019-01-10T01:58:53.690Z,0
2019-01-10T02:00:03.474Z,0
2019-01-10T02:01:13.180Z,0
2019-01-10T02:02:22.647Z,0
2019-01-10T02:03:32.333Z,0
2019-01-10T02:04:42.283Z,0
2019-01-10T02:05:52.228Z,0
2019-01-10T02:07:01.917Z,0
2019-01-10T02:08:11.603Z,0
2019-01-10T02:09:21.132Z,0
2019-01-10T02:10:30.822Z,0
2019-01-10T02:11:40.766Z,0
2019-01-10T02:12:50.217Z,0
2019-01-10T02:13:59.898Z,0
2019-01-10T02:15:09.602Z,0
2019-01-10T02:16:21.814Z,0
2019-01-10T02:17:31.504Z,0
2019-01-10T02:18:41.435Z,0
2019-01-10T02:19:51.118Z,0
2019-01-10T02:21:01.058Z,0
2019-01-10T02:22:10.990Z,0
2019-01-10T02:23:20.914Z,0
2019-01-10T02:24:30.604Z,0
2019-01-10T02:25:40.538Z,0
2019-01-10T02:26:50.480Z,0
2019-01-10T02:28:00.418Z,0
2019-01-10T02:29:09.868Z,0
2019-01-10T02:30:19.831Z,0
2019-01-10T02:31:29.527Z,0
2019-01-10T02:32:39.492Z,0
2019-01-10T02:33:49.424Z,0
2019-01-10T02:34:59.109Z,0
2019-01-10T02:36:09.164Z,0
2019-01-10T02:37:19.111Z,0
2019-01-10T02:38:28.834Z,0
2019-01-10T02:39:38.761Z,0
2019-01-10T02:40:48.448Z,0
2019-01-10T02:41:58.385Z,0
2019-01-10T02:43:08.339Z,0
2019-01-10T02:44:18.279Z,0
2019-01-10T02:45:28.233Z,0
2019-01-10T02:46:38.178Z,0
2019-01-10T02:47:48.128Z,0
2019-01-10T02:48:57.580Z,0
2019-01-10T02:50:07.530Z,0
2019-01-10T02:51:17.482Z,0
2019-01-10T02:52:27.440Z,0
2019-01-10T02:53:37.399Z,0
2019-01-10T02:54:47.094Z,0
2019-01-10T02:55:56.803Z,0
2019-01-10T02:57:06.731Z,0
2019-01-10T02:58:16.428Z,0
2019-01-10T02:59:26.409Z,0
2019-01-10T03:00:38.427Z,0
2019-01-10T03:01:48.115Z,0
2019-01-10T03:02:57.833Z,0
2019-01-10T03:04:07.842Z,0
2019-01-10T03:05:17.778Z,0
2019-01-10T03:06:27.717Z,0
2019-01-10T03:07:37.407Z,0
2019-01-10T03:08:47.235Z,0
2019-01-10T03:09:56.665Z,0
2019-01-10T03:11:06.112Z,0
2019-01-10T03:12:15.563Z,0
2019-01-10T03:13:25.252Z,0
2019-01-10T03:14:43.999Z,0
2019-01-10T03:15:53.017Z,0
2019-01-10T03:17:02.997Z,0
2019-01-10T03:18:12.950Z,0
2019-01-10T03:19:22.873Z,0
2019-01-10T03:20:32.593Z,0
2019-01-10T03:21:42.276Z,0
2019-01-10T03:22:52.221Z,0
2019-01-10T03:24:01.671Z,0
2019-01-10T03:25:11.401Z,0
2019-01-10T03:26:21.323Z,0
2019-01-10T03:27:31.269Z,0
2019-01-10T03:28:41.210Z,0
2019-01-10T03:29:51.165Z,0
2019-01-10T03:31:01.138Z,0
2019-01-10T03:32:10.887Z,0
2019-01-10T03:33:20.661Z,0
2019-01-10T03:34:30.613Z,0
2019-01-10T03:35:40.312Z,0
2019-01-10T03:36:50.273Z,0
2019-01-10T03:38:00.217Z,0
2019-01-10T03:39:10.153Z,0
2019-01-10T03:40:20.100Z,0
2019-01-10T03:41:30.036Z,0
2019-01-10T03:42:39.985Z,0
2019-01-10T03:43:54.773Z,0
2019-01-10T03:45:04.715Z,0
2019-01-10T03:46:14.423Z,0
2019-01-10T03:47:24.382Z,0
2019-01-10T03:48:34.322Z,0
2019-01-10T03:49:44.275Z,0
2019-01-10T03:50:54.210Z,0
2019-01-10T03:52:03.653Z,0
2019-01-10T03:53:13.345Z,0
2019-01-10T03:54:23.289Z,0
2019-01-10T03:55:33.231Z,0
2019-01-10T03:56:43.177Z,0
2019-01-10T03:57:52.877Z,0
2019-01-10T03:59:02.830Z,0
2019-01-10T04:00:12.775Z,0
2019-01-10T04:01:22.485Z,0
2019-01-10T04:02:32.455Z,0
2019-01-10T04:03:42.381Z,0
2019-01-10T04:04:52.327Z,0
2019-01-10T04:06:02.272Z,0
2019-01-10T04:07:11.975Z,0
2019-01-10T04:08:21.903Z,0
2019-01-10T04:09:31.599Z,0
2019-01-10T04:10:41.556Z,0
2019-01-10T04:11:51.614Z,0
2019-01-10T04:13:01.562Z,0
2019-01-10T04:14:10.749Z,0
2019-01-10T04:15:20.457Z,0
2019-01-10T04:16:30.403Z,0
2019-01-10T04:17:40.368Z,0
2019-01-10T04:18:50.314Z,0
2019-01-10T04:20:02.267Z,0
2019-01-10T04:21:21.657Z,0
2019-01-10T04:22:31.600Z,0
2019-01-10T04:23:41.289Z,0
2019-01-10T04:24:51.241Z,0
2019-01-10T04:26:00.680Z,0
2019-01-10T04:27:10.378Z,0
2019-01-10T04:28:20.323Z,0
2019-01-10T04:29:30.347Z,0
2019-01-10T04:30:40.269Z,0
2019-01-10T04:31:50.207Z,0
2019-01-10T04:33:00.149Z,0
2019-01-10T04:34:09.838Z,0
2019-01-10T04:35:19.782Z,0
2019-01-10T04:36:30.225Z,0
2019-01-10T04:37:40.293Z,0
2019-01-10T04:38:49.977Z,0
2019-01-10T04:39:59.923Z,0
2019-01-10T04:41:09.879Z,0
2019-01-10T04:42:21.751Z,0
2019-01-10T04:43:31.603Z,0
2019-01-10T04:44:41.302Z,0
2019-01-10T04:45:51.001Z,0
2019-01-10T04:47:00.927Z,0
2019-01-10T04:48:10.109Z,0
2019-01-10T04:49:19.793Z,0
2019-01-10T04:50:29.733Z,0
2019-01-10T04:51:39.657Z,0
2019-01-10T04:52:49.596Z,0
2019-01-10T04:53:59.538Z,0
2019-01-10T04:55:09.468Z,0
2019-01-10T04:56:19.406Z,0
2019-01-10T04:57:29.104Z,0
2019-01-10T04:58:39.047Z,0
2019-01-10T04:59:48.757Z,0
2019-01-10T05:00:58.698Z,0
2019-01-10T05:02:18.041Z,0
2019-01-10T05:03:28.186Z,0
2019-01-10T05:04:38.129Z,0
2019-01-10T05:05:47.810Z,0
2019-01-10T05:06:57.497Z,0
2019-01-10T05:08:07.184Z,0
2019-01-10T05:09:17.133Z,0
2019-01-10T05:10:26.841Z,0
2019-01-10T05:11:36.543Z,0
2019-01-10T05:12:48.945Z,0
2019-01-10T05:13:58.897Z,0
2019-01-10T05:15:08.596Z,0
2019-01-10T05:16:18.300Z,0
2019-01-10T05:17:30.117Z,0
2019-01-10T05:18:40.437Z,0
2019-01-10T05:19:50.393Z,0
2019-01-10T05:21:00.073Z,0
2019-01-10T05:22:10.049Z,0
2019-01-10T05:23:19.507Z,0
2019-01-10T05:24:29.824Z,0
2019-01-10T05:25:39.787Z,0
2019-01-10T05:26:49.727Z,0
2019-01-10T05:27:59.661Z,0
2019-01-10T05:29:09.353Z,0
2019-01-10T05:30:19.297Z,0
2019-01-10T05:31:29.242Z,0
2019-01-10T05:32:39.207Z,0
2019-01-10T05:33:48.650Z,0
2019-01-10T05:34:58.589Z,0
2019-01-10T05:36:08.532Z,0
2019-01-10T05:37:18.472Z,0
2019-01-10T05:38:28.404Z,0
2019-01-10T05:39:47.134Z,0
2019-01-10T05:40:57.406Z,0
2019-01-10T05:42:08.025Z,0
2019-01-10T05:43:17.717Z,0
2019-01-10T05:44:33.893Z,0
2019-01-10T05:45:43.856Z,0
2019-01-10T05:46:55.782Z,0
2019-01-10T05:48:05.715Z,0
2019-01-10T05:49:15.675Z,0
2019-01-10T05:50:25.384Z,0
2019-01-10T05:51:35.343Z,0
2019-01-10T05:52:45.293Z,0
2019-01-10T05:53:55.246Z,0
2019-01-10T05:55:05.188Z,0
2019-01-10T05:56:22.876Z,0
2019-01-10T05:57:32.575Z,0
2019-01-10T05:58:44.475Z,0
2019-01-10T05:59:54.261Z,0
2019-01-10T06:01:04.214Z,0
2019-01-10T06:02:14.154Z,0
2019-01-10T06:03:24.098Z,0
2019-01-10T06:04:34.057Z,0
2019-01-10T06:05:43.730Z,0
2019-01-10T06:06:53.682Z,0
2019-01-10T06:08:03.378Z,0
2019-01-10T06:09:13.327Z,0
2019-01-10T06:10:23.262Z,0
2019-01-10T06:11:33.209Z,0
2019-01-10T06:12:43.152Z,0
2019-01-10T06:13:52.859Z,0
2019-01-10T06:15:02.417Z,0
2019-01-10T06:16:12.359Z,0
2019-01-10T06:17:22.307Z,0
2019-01-10T06:18:32.249Z,0
2019-01-10T06:19:41.694Z,0
2019-01-10T06:20:51.395Z,0
2019-01-10T06:22:01.351Z,0
2019-01-10T06:23:11.375Z,0
2019-01-10T06:24:21.324Z,0
2019-01-10T06:25:31.034Z,0
2019-01-10T06:26:40.975Z,0
2019-01-10T06:27:50.380Z,0
2019-01-10T06:29:00.078Z,0
2019-01-10T06:30:10.037Z,0
2019-01-10T06:31:19.982Z,0
2019-01-10T06:32:29.170Z,0
2019-01-10T06:33:39.142Z,0
2019-01-10T06:34:49.099Z,0
2019-01-10T06:35:58.550Z,4
2019-01-10T06:37:08.286Z,4
2019-01-10T06:38:17.998Z,4
2019-01-10T06:39:27.944Z,4
2019-01-10T06:40:37.882Z,4
2019-01-10T06:41:47.347Z,4
2019-01-10T06:42:57.170Z,4
2019-01-10T06:44:07.110Z,8
2019-01-10T06:45:17.097Z,8
2019-01-10T06:46:26.537Z,12
2019-01-10T06:47:38.604Z,12
2019-01-10T06:48:48.551Z,12
2019-01-10T06:49:58.252Z,16
2019-01-10T06:51:08.196Z,16
2019-01-10T06:52:17.972Z,20
2019-01-10T06:53:27.920Z,28
2019-01-10T06:54:37.621Z,24
2019-01-10T06:55:49.765Z,32
2019-01-10T06:56:59.476Z,40
2019-01-10T06:58:09.174Z,44
2019-01-10T06:59:18.868Z,52
2019-01-10T07:00:28.609Z,56
2019-01-10T07:01:38.328Z,64
2019-01-10T07:02:48.352Z,64
2019-01-10T07:03:58.338Z,76
2019-01-10T07:05:08.172Z,88
2019-01-10T07:06:18.362Z,84
2019-01-10T07:07:29.640Z,84
2019-01-10T07:08:39.742Z,96
2019-01-10T07:09:49.803Z,120
2019-01-10T07:10:59.246Z,132
2019-01-10T07:12:10.051Z,136
2019-01-10T07:13:20.268Z,144
2019-01-10T07:14:30.215Z,160
2019-01-10T07:15:41.526Z,200
2019-01-10T07:17:00.726Z,236
2019-01-10T07:18:10.430Z,256
2019-01-10T07:19:20.379Z,292
2019-01-10T07:20:30.353Z,332
2019-01-10T07:21:40.353Z,372
2019-01-10T07:22:50.317Z,416
2019-01-10T07:24:00.886Z,400
2019-01-10T07:25:10.875Z,400
2019-01-10T07:26:20.860Z,432
2019-01-10T07:27:30.317Z,436
2019-01-10T07:28:40.275Z,512
2019-01-10T07:29:49.986Z,576
2019-01-10T07:30:59.678Z,592
2019-01-10T07:32:09.658Z,648
2019-01-10T07:33:19.369Z,632
2019-01-10T07:34:29.347Z,616
2019-01-10T07:35:39.077Z,648
2019-01-10T07:36:48.810Z,636
2019-01-10T07:37:58.552Z,636
2019-01-10T07:39:08.504Z,576
2019-01-10T07:40:17.946Z,508
2019-01-10T07:41:27.918Z,548
2019-01-10T07:42:37.448Z,548
2019-01-10T07:43:47.511Z,524
2019-01-10T07:45:04.938Z,580
2019-01-10T07:46:14.916Z,648
2019-01-10T07:47:24.607Z,708
2019-01-10T07:48:34.304Z,752
2019-01-10T07:49:44.004Z,904
2019-01-10T07:50:53.960Z,796
2019-01-10T07:52:03.931Z,716
2019-01-10T07:53:13.920Z,708
2019-01-10T07:54:23.649Z,744
2019-01-10T07:55:33.622Z,716
2019-01-10T07:56:43.772Z,796
2019-01-10T07:57:53.723Z,848
2019-01-10T07:59:03.665Z,908
2019-01-10T08:00:13.225Z,984
2019-01-10T08:01:23.186Z,1148
2019-01-10T08:02:33.170Z,1240
2019-01-10T08:03:43.112Z,1300
2019-01-10T08:04:53.091Z,1304
2019-01-10T08:06:04.626Z,1260
2019-01-10T08:07:14.635Z,1268
2019-01-10T08:08:24.586Z,1300
2019-01-10T08:09:34.277Z,1272
2019-01-10T08:10:43.973Z,1232
2019-01-10T08:12:02.798Z,1268
2019-01-10T08:13:12.757Z,1352
2019-01-10T08:14:22.465Z,1368
2019-01-10T08:15:32.151Z,1236
2019-01-10T08:16:42.636Z,1640
2019-01-10T08:17:52.621Z,1720
2019-01-10T08:19:02.348Z,1540
2019-01-10T08:20:12.621Z,1724
2019-01-10T08:21:22.626Z,1708
2019-01-10T08:22:35.091Z,2020
2019-01-10T08:23:44.790Z,2784
2019-01-10T08:24:54.492Z,2824
2019-01-10T08:26:04.196Z,3088
2019-01-10T08:27:14.154Z,4224
2019-01-10T08:28:23.859Z,4472
2019-01-10T08:29:33.686Z,4496
2019-01-10T08:30:43.407Z,4452
2019-01-10T08:31:52.844Z,3272
2019-01-10T08:33:02.620Z,2668
2019-01-10T08:34:12.560Z,2244
2019-01-10T08:35:22.239Z,1972
2019-01-10T08:36:39.500Z,1876
2019-01-10T08:37:49.445Z,1668
2019-01-10T08:38:59.148Z,1616
2019-01-10T08:40:09.082Z,1652
2019-01-10T08:41:20.872Z,1748
2019-01-10T08:42:30.553Z,2092
2019-01-10T08:43:40.233Z,2184
2019-01-10T08:44:49.752Z,2204
2019-01-10T08:45:59.520Z,2812
2019-01-10T08:47:09.466Z,3176
2019-01-10T08:48:19.776Z,3104
2019-01-10T08:49:29.727Z,2980
2019-01-10T08:50:39.682Z,3940
2019-01-10T08:51:49.390Z,4656
2019-01-10T08:52:59.362Z,4892
2019-01-10T08:54:09.324Z,4808
2019-01-10T08:55:19.011Z,4492
2019-01-10T08:56:28.951Z,3880
2019-01-10T08:57:38.663Z,3556
2019-01-10T08:58:48.627Z,3880
2019-01-10T08:59:58.572Z,4748
2019-01-10T09:01:08.271Z,5800
2019-01-10T09:02:18.472Z,6644
2019-01-10T09:03:28.432Z,6312
2019-01-10T09:04:38.114Z,5384
2019-01-10T09:05:48.109Z,5112
2019-01-10T09:06:58.053Z,5184
2019-01-10T09:08:07.992Z,6324
2019-01-10T09:09:17.679Z,6872
2019-01-10T09:10:26.614Z,7332
2019-01-10T09:11:36.559Z,6752
2019-01-10T09:12:46.496Z,6708
2019-01-10T09:13:56.438Z,7580
2019-01-10T09:15:06.383Z,8980
2019-01-10T09:16:16.097Z,9616
2019-01-10T09:17:25.825Z,10316
2019-01-10T09:18:35.623Z,10588
2019-01-10T09:19:45.579Z,10340
2019-01-10T09:21:03.911Z,9700
2019-01-10T09:22:14.210Z,9176
2019-01-10T09:23:24.167Z,9296
2019-01-10T09:24:34.120Z,9504
2019-01-10T09:25:43.817Z,9212
2019-01-10T09:26:53.541Z,9248
2019-01-10T09:28:03.503Z,9000
2019-01-10T09:29:13.201Z,9044
2019-01-10T09:30:23.170Z,8440
2019-01-10T09:31:33.126Z,8292
2019-01-10T09:32:43.073Z,9652
2019-01-10T09:33:53.100Z,10476
2019-01-10T09:35:02.545Z,10680
2019-01-10T09:36:12.247Z,9800
2019-01-10T09:37:21.951Z,9428
2019-01-10T09:38:31.664Z,7672
2019-01-10T09:39:41.619Z,6096
2019-01-10T09:40:51.573Z,4876
2019-01-10T09:42:01.543Z,6424
2019-01-10T09:43:11.282Z,7040
2019-01-10T09:44:20.973Z,7984
2019-01-10T09:45:30.248Z,9628
2019-01-10T09:46:39.947Z,8884
2019-01-10T09:47:49.890Z,9032
2019-01-10T09:48:59.827Z,7920
2019-01-10T09:50:09.545Z,7376
2019-01-10T09:51:19.503Z,6556
2019-01-10T09:52:29.228Z,6176
2019-01-10T09:53:39.171Z,5808
2019-01-10T09:54:49.185Z,5664
2019-01-10T09:55:59.161Z,6360
2019-01-10T09:57:09.343Z,6196
2019-01-10T09:58:19.404Z,5564
2019-01-10T09:59:28.629Z,5988
2019-01-10T10:00:38.568Z,5848
2019-01-10T10:01:48.532Z,6620
2019-01-10T10:02:58.327Z,7364
2019-01-10T10:04:08.028Z,5892
2019-01-10T10:05:17.748Z,5472
2019-01-10T10:06:27.455Z,6016
2019-01-10T10:07:37.434Z,5972
2019-01-10T10:08:47.414Z,5524
2019-01-10T10:09:57.361Z,5848
2019-01-10T10:11:07.431Z,6076
2019-01-10T10:12:17.146Z,5660
2019-01-10T10:13:27.085Z,5568
2019-01-10T10:14:37.177Z,5600
2019-01-10T10:15:54.990Z,5068
2019-01-10T10:17:04.958Z,4664
2019-01-10T10:18:15.269Z,4280
2019-01-10T10:19:24.986Z,4260
2019-01-10T10:20:34.933Z,4216
2019-01-10T10:21:44.971Z,4188
2019-01-10T10:22:54.420Z,4176
2019-01-10T10:24:04.385Z,5016
2019-01-10T10:25:14.079Z,6336
2019-01-10T10:26:23.781Z,7720
2019-01-10T10:27:33.741Z,8920
2019-01-10T10:28:43.716Z,10608
2019-01-10T10:29:53.670Z,13000
2019-01-10T10:31:03.621Z,14920
2019-01-10T10:32:13.577Z,16768
2019-01-10T10:33:23.326Z,18144
2019-01-10T10:34:33.026Z,20832
2019-01-10T10:35:43.211Z,24800
2019-01-10T10:36:53.287Z,45024
2019-01-10T10:38:03.249Z,19904
2019-01-10T10:39:12.946Z,19040
2019-01-10T10:40:22.499Z,22112
2019-01-10T10:41:32.484Z,16108
2019-01-10T10:42:42.484Z,15980
2019-01-10T10:43:52.444Z,18272
2019-01-10T10:45:01.915Z,20128
2019-01-10T10:46:11.859Z,20096
2019-01-10T10:47:21.337Z,23232
2019-01-10T10:48:30.883Z,26400
2019-01-10T10:49:40.859Z,72640
2019-01-10T10:50:50.810Z,27584
2019-01-10T10:52:00.769Z,26464
2019-01-10T10:53:10.485Z,28704
2019-01-10T10:54:20.197Z,33344
2019-01-10T10:55:29.922Z,20448
2019-01-10T10:56:39.852Z,24160
2019-01-10T10:57:49.793Z,25664
2019-01-10T10:58:59.543Z,30272
2019-01-10T11:00:09.534Z,26144
2019-01-10T11:01:19.495Z,22976
2019-01-10T11:02:29.485Z,25632
2019-01-10T11:03:41.035Z,80576
2019-01-10T11:04:51.071Z,67104
2019-01-10T11:06:01.035Z,80096
2019-01-10T11:07:10.743Z,52128
2019-01-10T11:08:20.690Z,23520
2019-01-10T11:09:30.393Z,34432
2019-01-10T11:10:40.121Z,23648
2019-01-10T11:11:49.860Z,66368
2019-01-10T11:12:59.819Z,78784
2019-01-10T11:14:09.781Z,35616
2019-01-10T11:15:19.737Z,23360
2019-01-10T11:16:29.695Z,31776
2019-01-10T11:17:39.643Z,53248
2019-01-10T11:18:49.637Z,39552
2019-01-10T11:19:59.631Z,70464
2019-01-10T11:21:09.333Z,70784
2019-01-10T11:22:19.044Z,73408
2019-01-10T11:23:28.745Z,70112
2019-01-10T11:24:37.975Z,71136
2019-01-10T11:25:47.423Z,72256
2019-01-10T11:26:58.316Z,71136
2019-01-10T11:28:08.282Z,71552
2019-01-10T11:29:18.236Z,74688
2019-01-10T11:30:27.952Z,56992
2019-01-10T11:31:37.920Z,20160
2019-01-10T11:32:47.609Z,21088
2019-01-10T11:33:57.315Z,25856
2019-01-10T11:35:07.331Z,43200
2019-01-10T11:36:17.303Z,80512
2019-01-10T11:37:27.257Z,40640
2019-01-10T11:38:37.216Z,41952
2019-01-10T11:39:46.929Z,26336
2019-01-10T11:40:56.871Z,16192
2019-01-10T11:42:06.579Z,15320
2019-01-10T11:43:16.276Z,17824
2019-01-10T11:44:26.459Z,19488
2019-01-10T11:45:36.419Z,77216
2019-01-10T11:46:46.121Z,64672
2019-01-10T11:47:55.825Z,66496
2019-01-10T11:49:05.543Z,54880
2019-01-10T11:50:14.993Z,78240
2019-01-10T11:51:24.698Z,76416
2019-01-10T11:52:34.649Z,15152
2019-01-10T11:53:44.584Z,11896
2019-01-10T11:54:54.842Z,10680
2019-01-10T11:56:04.548Z,10492
2019-01-10T11:57:14.258Z,10948
2019-01-10T11:58:24.215Z,12216
2019-01-10T11:59:33.903Z,14276
2019-01-10T12:00:43.871Z,13952
2019-01-10T12:01:53.573Z,12732
2019-01-10T12:03:03.551Z,13404
2019-01-10T12:04:13.514Z,20096
2019-01-10T12:05:23.219Z,40256
2019-01-10T12:06:32.690Z,17184
2019-01-10T12:07:42.401Z,18112
2019-01-10T12:08:52.357Z,25984
2019-01-10T12:10:02.171Z,44480
2019-01-10T12:11:12.128Z,80192
2019-01-10T12:12:22.092Z,83008
2019-01-10T12:13:31.822Z,31968
2019-01-10T12:14:41.284Z,30336
2019-01-10T12:15:51.245Z,37728
2019-01-10T12:17:01.214Z,21568
2019-01-10T12:18:11.173Z,56032
2019-01-10T12:19:21.147Z,19872
2019-01-10T12:20:30.860Z,22528
2019-01-10T12:21:40.757Z,19776
2019-01-10T12:22:50.445Z,15572
2019-01-10T12:24:00.405Z,12884
2019-01-10T12:25:10.350Z,11572
2019-01-10T12:26:19.803Z,10820
2019-01-10T12:27:29.254Z,10764
2019-01-10T12:28:38.953Z,10960
2019-01-10T12:29:48.916Z,11084
2019-01-10T12:30:58.623Z,10168
2019-01-10T12:32:08.327Z,10612
2019-01-10T12:33:17.807Z,11716
2019-01-10T12:34:27.807Z,10564
2019-01-10T12:35:37.261Z,10860
2019-01-10T12:36:46.969Z,10592
2019-01-10T12:37:56.431Z,10184
2019-01-10T12:39:08.386Z,9784
2019-01-10T12:40:18.378Z,8944
2019-01-10T12:41:28.092Z,8112
2019-01-10T12:42:37.833Z,7184
2019-01-10T12:43:47.841Z,6284
2019-01-10T12:44:57.849Z,5800
2019-01-10T12:46:08.495Z,5692
2019-01-10T12:47:18.593Z,5840
2019-01-10T12:48:28.553Z,6320
2019-01-10T12:49:38.521Z,7336
2019-01-10T12:50:48.472Z,8576
2019-01-10T12:51:58.172Z,9336
2019-01-10T12:53:08.245Z,9616
2019-01-10T12:54:18.136Z,9000
2019-01-10T12:55:29.766Z,7392
2019-01-10T12:56:39.724Z,6612
2019-01-10T12:57:49.431Z,6260
2019-01-10T12:58:59.128Z,5960
2019-01-10T13:00:09.149Z,5720
2019-01-10T13:01:19.145Z,5712
2019-01-10T13:02:29.124Z,5572
2019-01-10T13:03:38.831Z,4920
2019-01-10T13:04:48.799Z,4332
2019-01-10T13:05:58.760Z,4068
2019-01-10T13:07:08.268Z,4036
2019-01-10T13:08:17.963Z,4128
2019-01-10T13:09:27.974Z,4064
2019-01-10T13:10:37.690Z,4092
2019-01-10T13:11:47.462Z,4108
2019-01-10T13:12:57.169Z,4100
2019-01-10T13:14:11.374Z,4480
2019-01-10T13:15:21.336Z,5068
2019-01-10T13:16:31.095Z,5668
2019-01-10T13:17:40.939Z,6188
2019-01-10T13:18:50.931Z,7040
2019-01-10T13:20:00.396Z,8056
2019-01-10T13:21:12.158Z,8272
2019-01-10T13:22:22.142Z,7432
2019-01-10T13:23:32.350Z,6624
2019-01-10T13:24:44.184Z,6360
2019-01-10T13:26:02.113Z,6912
2019-01-10T13:27:12.113Z,7452
2019-01-10T13:28:22.086Z,8044
2019-01-10T13:29:31.822Z,8612
2019-01-10T13:30:43.477Z,8748
2019-01-10T13:31:53.534Z,7520
2019-01-10T13:33:02.992Z,5944
2019-01-10T13:34:12.952Z,4744
2019-01-10T13:35:22.909Z,3856
2019-01-10T13:36:33.034Z,3404
2019-01-10T13:37:42.725Z,2860
2019-01-10T13:38:52.430Z,2768
2019-01-10T13:40:02.121Z,2936
2019-01-10T13:41:12.869Z,3032
2019-01-10T13:42:22.574Z,3016
2019-01-10T13:43:32.537Z,3004
2019-01-10T13:44:42.496Z,3324
2019-01-10T13:45:55.387Z,4124
2019-01-10T13:47:05.237Z,3892
2019-01-10T13:48:14.932Z,4244
2019-01-10T13:49:24.872Z,4344
2019-01-10T13:50:34.572Z,3992
2019-01-10T13:51:44.022Z,3592
2019-01-10T13:52:54.005Z,3464
2019-01-10T13:54:04.190Z,3496
2019-01-10T13:55:13.893Z,3564
2019-01-10T13:56:23.898Z,3524
2019-01-10T13:57:35.377Z,3400
2019-01-10T13:58:45.340Z,3288
2019-01-10T13:59:55.036Z,3212
2019-01-10T14:01:05.000Z,3148
2019-01-10T14:02:14.718Z,3068
2019-01-10T14:03:24.664Z,3000
2019-01-10T14:04:35.000Z,2964
2019-01-10T14:05:44.958Z,2948
2019-01-10T14:06:54.684Z,2932
2019-01-10T14:08:04.644Z,3024
2019-01-10T14:09:14.598Z,3184
2019-01-10T14:10:24.544Z,3320
2019-01-10T14:11:34.988Z,3400
2019-01-10T14:12:44.945Z,3480
2019-01-10T14:13:54.645Z,3684
2019-01-10T14:15:04.616Z,4004
2019-01-10T14:16:14.584Z,4080
2019-01-10T14:17:24.570Z,4024
2019-01-10T14:18:34.283Z,3672
2019-01-10T14:19:44.255Z,3160
2019-01-10T14:20:54.220Z,2588
2019-01-10T14:22:03.660Z,2008
2019-01-10T14:23:13.839Z,1520
2019-01-10T14:24:23.556Z,1232
2019-01-10T14:25:33.491Z,1160
2019-01-10T14:26:43.445Z,1220
2019-01-10T14:27:59.081Z,1336
2019-01-10T14:29:09.664Z,1468
2019-01-10T14:30:19.626Z,1512
2019-01-10T14:31:29.327Z,1440
2019-01-10T14:32:39.043Z,1344
2019-01-10T14:33:49.012Z,1288
2019-01-10T14:34:58.951Z,1276
2019-01-10T14:36:08.624Z,1272
2019-01-10T14:37:18.593Z,1264
2019-01-10T14:38:28.552Z,1276
2019-01-10T14:39:38.504Z,1304
2019-01-10T14:40:48.213Z,1356
2019-01-10T14:41:57.922Z,1380
2019-01-10T14:43:07.886Z,1364
2019-01-10T14:44:17.622Z,1348
2019-01-10T14:45:27.588Z,1320
2019-01-10T14:46:37.554Z,1236
2019-01-10T14:47:47.517Z,1160
2019-01-10T14:48:57.476Z,1100
2019-01-10T14:50:07.190Z,1060
2019-01-10T14:51:16.908Z,1036
2019-01-10T14:52:26.866Z,1024
2019-01-10T14:53:37.485Z,1000
2019-01-10T14:54:46.680Z,960
2019-01-10T14:55:56.858Z,896
2019-01-10T14:57:06.826Z,812
2019-01-10T14:58:16.537Z,728
2019-01-10T14:59:26.489Z,664
2019-01-10T15:00:36.470Z,612
2019-01-10T15:01:46.428Z,564
2019-01-10T15:02:56.151Z,524
2019-01-10T15:04:05.865Z,492
2019-01-10T15:05:15.563Z,468
2019-01-10T15:06:25.528Z,444
2019-01-10T15:07:35.246Z,428
2019-01-10T15:08:45.188Z,400
2019-01-10T15:09:55.130Z,368
2019-01-10T15:11:05.094Z,336
2019-01-10T15:12:14.560Z,300
2019-01-10T15:13:24.520Z,264
2019-01-10T15:14:34.471Z,228
2019-01-10T15:15:45.881Z,192
2019-01-10T15:16:55.534Z,152
2019-01-10T15:18:05.487Z,124
2019-01-10T15:19:15.424Z,104
2019-01-10T15:20:25.389Z,92
2019-01-10T15:21:35.352Z,80
2019-01-10T15:22:45.311Z,72
2019-01-10T15:23:55.275Z,60
2019-01-10T15:25:04.813Z,52
2019-01-10T15:26:15.762Z,44
2019-01-10T15:27:26.181Z,40
2019-01-10T15:28:35.888Z,36
2019-01-10T15:29:45.841Z,32
2019-01-10T15:30:55.319Z,28
2019-01-10T15:32:05.257Z,28
2019-01-10T15:33:14.969Z,20
2019-01-10T15:34:24.680Z,16
2019-01-10T15:35:34.407Z,12
2019-01-10T15:36:43.847Z,12
2019-01-10T15:37:53.558Z,8
2019-01-10T15:39:03.007Z,8
2019-01-10T15:40:12.454Z,8
2019-01-10T15:41:22.401Z,8
2019-01-10T15:42:32.353Z,4
2019-01-10T15:43:42.346Z,4
2019-01-10T15:44:52.289Z,4
2019-01-10T15:46:01.720Z,4
2019-01-10T15:47:11.692Z,4
2019-01-10T15:48:26.904Z,0
2019-01-10T15:49:36.869Z,4
2019-01-10T15:50:46.800Z,4
2019-01-10T15:51:56.730Z,0
2019-01-10T15:53:06.833Z,0
2019-01-10T15:54:16.810Z,0
2019-01-10T15:55:26.763Z,0
2019-01-10T15:56:36.458Z,0
2019-01-10T15:57:46.411Z,0
2019-01-10T15:58:56.359Z,0
2019-01-10T16:00:06.320Z,0
2019-01-10T16:01:16.026Z,0
2019-01-10T16:02:27.035Z,0
2019-01-10T16:03:36.724Z,0
2019-01-10T16:04:46.169Z,0
2019-01-10T16:05:56.121Z,0
2019-01-10T16:07:06.069Z,0
2019-01-10T16:08:15.762Z,0
2019-01-10T16:09:25.473Z,0
2019-01-10T16:10:35.420Z,0
2019-01-10T16:11:45.365Z,0
2019-01-10T16:12:56.890Z,0
2019-01-10T16:14:06.838Z,0
2019-01-10T16:15:16.617Z,0
2019-01-10T16:16:26.281Z,0
2019-01-10T16:17:35.960Z,0